sensor_id;sensor_type;location;lat;lon;timestamp;P1;durP1;ratioP1;P2;durP2;ratioP2
77775;SDS011;66965;43.328;6.668;2023-03-01T00:00:14;7.88;;;4.55;;
77775;SDS011;66965;43.328;6.668;2023-03-01T00:02:40;8.88;;;5.43;;
77775;SDS011;66965;43.328;6.668;2023-03-01T00:05:05;8.30;;;4.95;;
77775;SDS011;66965;43.328;6.668;2023-03-01T00:07:32;8.90;;;5.18;;
77775;SDS011;66965;43.328;6.668;2023-03-01T00:09:57;9.95;;;5.25;;
77775;SDS011;66965;43.328;6.668;2023-03-01T00:12:23;8.55;;;4.63;;
77775;SDS011;66965;43.328;6.668;2023-03-01T00:14:48;7.60;;;4.55;;
77775;SDS011;66965;43.328;6.668;2023-03-01T00:17:14;8.20;;;4.70;;
77775;SDS011;66965;43.328;6.668;2023-03-01T00:19:39;8.20;;;5.32;;
77775;SDS011;66965;43.328;6.668;2023-03-01T00:22:05;9.43;;;5.50;;
77775;SDS011;66965;43.328;6.668;2023-03-01T00:24:30;8.98;;;5.75;;
77775;SDS011;66965;43.328;6.668;2023-03-01T00:26:56;9.60;;;5.97;;
77775;SDS011;66965;43.328;6.668;2023-03-01T00:29:22;9.77;;;5.22;;
77775;SDS011;66965;43.328;6.668;2023-03-01T00:31:50;8.32;;;6.30;;
77775;SDS011;66965;43.328;6.668;2023-03-01T00:34:16;11.98;;;5.25;;
77775;SDS011;66965;43.328;6.668;2023-03-01T00:36:41;9.15;;;5.30;;
77775;SDS011;66965;43.328;6.668;2023-03-01T00:39:09;8.98;;;5.10;;
77775;SDS011;66965;43.328;6.668;2023-03-01T00:41:37;10.60;;;5.68;;
77775;SDS011;66965;43.328;6.668;2023-03-01T00:44:02;8.52;;;5.72;;
77775;SDS011;66965;43.328;6.668;2023-03-01T00:46:28;10.55;;;5.78;;
77775;SDS011;66965;43.328;6.668;2023-03-01T00:51:22;11.00;;;5.82;;
77775;SDS011;66965;43.328;6.668;2023-03-01T00:53:51;7.70;;;4.60;;
77775;SDS011;66965;43.328;6.668;2023-03-01T00:56:18;6.70;;;4.38;;
77775;SDS011;66965;43.328;6.668;2023-03-01T00:58:44;8.60;;;5.80;;
77775;SDS011;66965;43.328;6.668;2023-03-01T01:01:16;7.10;;;4.55;;
77775;SDS011;66965;43.328;6.668;2023-03-01T01:03:48;7.72;;;5.07;;
77775;SDS011;66965;43.328;6.668;2023-03-01T01:06:25;7.80;;;4.50;;
77775;SDS011;66965;43.328;6.668;2023-03-01T01:08:52;8.65;;;4.07;;
77775;SDS011;66965;43.328;6.668;2023-03-01T01:11:19;9.30;;;4.68;;
77775;SDS011;66965;43.328;6.668;2023-03-01T01:13:45;9.98;;;5.43;;
77775;SDS011;66965;43.328;6.668;2023-03-01T01:16:12;9.88;;;4.60;;
77775;SDS011;66965;43.328;6.668;2023-03-01T01:18:39;8.13;;;4.65;;
77775;SDS011;66965;43.328;6.668;2023-03-01T01:21:06;8.30;;;4.53;;
77775;SDS011;66965;43.328;6.668;2023-03-01T01:23:33;8.30;;;5.22;;
77775;SDS011;66965;43.328;6.668;2023-03-01T01:26:03;7.45;;;4.20;;
77775;SDS011;66965;43.328;6.668;2023-03-01T01:28:32;7.75;;;4.63;;
77775;SDS011;66965;43.328;6.668;2023-03-01T01:30:58;8.38;;;4.93;;
77775;SDS011;66965;43.328;6.668;2023-03-01T01:33:24;8.27;;;4.25;;
77775;SDS011;66965;43.328;6.668;2023-03-01T01:35:49;9.73;;;4.47;;
77775;SDS011;66965;43.328;6.668;2023-03-01T01:38:15;7.18;;;3.83;;
77775;SDS011;66965;43.328;6.668;2023-03-01T01:40:44;11.75;;;4.43;;
77775;SDS011;66965;43.328;6.668;2023-03-01T01:43:14;6.60;;;3.75;;
77775;SDS011;66965;43.328;6.668;2023-03-01T01:45:55;6.05;;;4.13;;
77775;SDS011;66965;43.328;6.668;2023-03-01T01:48:24;8.30;;;4.93;;
77775;SDS011;66965;43.328;6.668;2023-03-01T01:51:05;6.40;;;4.45;;
77775;SDS011;66965;43.328;6.668;2023-03-01T01:53:34;9.82;;;5.22;;
77775;SDS011;66965;43.328;6.668;2023-03-01T01:56:01;7.30;;;5.22;;
77775;SDS011;66965;43.328;6.668;2023-03-01T01:58:28;7.72;;;5.03;;
77775;SDS011;66965;43.328;6.668;2023-03-01T02:00:55;8.20;;;4.57;;
77775;SDS011;66965;43.328;6.668;2023-03-01T02:03:25;9.30;;;5.63;;
77775;SDS011;66965;43.328;6.668;2023-03-01T02:06:03;9.40;;;5.22;;
77775;SDS011;66965;43.328;6.668;2023-03-01T02:08:31;9.25;;;5.40;;
77775;SDS011;66965;43.328;6.668;2023-03-01T02:11:00;9.85;;;5.40;;
77775;SDS011;66965;43.328;6.668;2023-03-01T02:13:29;9.15;;;5.63;;
77775;SDS011;66965;43.328;6.668;2023-03-01T02:15:55;9.10;;;5.88;;
77775;SDS011;66965;43.328;6.668;2023-03-01T02:18:21;9.98;;;6.03;;
77775;SDS011;66965;43.328;6.668;2023-03-01T02:23:27;8.30;;;4.95;;
77775;SDS011;66965;43.328;6.668;2023-03-01T02:30:53;7.57;;;4.75;;
77775;SDS011;66965;43.328;6.668;2023-03-01T02:36:04;7.22;;;4.18;;
77775;SDS011;66965;43.328;6.668;2023-03-01T02:41:01;16.47;;;5.33;;
77775;SDS011;66965;43.328;6.668;2023-03-01T02:43:30;16.85;;;6.00;;
77775;SDS011;66965;43.328;6.668;2023-03-01T02:45:58;16.00;;;6.18;;
77775;SDS011;66965;43.328;6.668;2023-03-01T02:48:38;12.98;;;6.57;;
77775;SDS011;66965;43.328;6.668;2023-03-01T02:51:07;10.15;;;5.15;;
77775;SDS011;66965;43.328;6.668;2023-03-01T02:56:33;18.33;;;6.25;;
77775;SDS011;66965;43.328;6.668;2023-03-01T02:59:00;22.45;;;7.75;;
77775;SDS011;66965;43.328;6.668;2023-03-01T03:01:27;26.15;;;8.27;;
77775;SDS011;66965;43.328;6.668;2023-03-01T03:04:06;15.10;;;6.07;;
77775;SDS011;66965;43.328;6.668;2023-03-01T03:06:33;8.30;;;4.88;;
77775;SDS011;66965;43.328;6.668;2023-03-01T03:08:58;7.75;;;4.18;;
77775;SDS011;66965;43.328;6.668;2023-03-01T03:11:25;7.78;;;3.92;;
77775;SDS011;66965;43.328;6.668;2023-03-01T03:13:50;7.03;;;3.85;;
77775;SDS011;66965;43.328;6.668;2023-03-01T03:16:17;7.18;;;3.83;;
77775;SDS011;66965;43.328;6.668;2023-03-01T03:18:42;11.25;;;4.10;;
77775;SDS011;66965;43.328;6.668;2023-03-01T03:21:08;8.18;;;3.60;;
77775;SDS011;66965;43.328;6.668;2023-03-01T03:23:36;7.45;;;4.22;;
77775;SDS011;66965;43.328;6.668;2023-03-01T03:26:02;6.13;;;3.92;;
77775;SDS011;66965;43.328;6.668;2023-03-01T03:28:32;7.20;;;4.13;;
77775;SDS011;66965;43.328;6.668;2023-03-01T03:30:58;9.10;;;5.57;;
77775;SDS011;66965;43.328;6.668;2023-03-01T03:33:28;9.30;;;4.97;;
77775;SDS011;66965;43.328;6.668;2023-03-01T03:35:56;7.88;;;4.90;;
77775;SDS011;66965;43.328;6.668;2023-03-01T03:38:22;8.20;;;4.88;;
77775;SDS011;66965;43.328;6.668;2023-03-01T03:40:51;7.40;;;4.50;;
77775;SDS011;66965;43.328;6.668;2023-03-01T03:43:27;8.07;;;4.25;;
77775;SDS011;66965;43.328;6.668;2023-03-01T03:45:54;7.40;;;4.53;;
77775;SDS011;66965;43.328;6.668;2023-03-01T03:48:19;6.25;;;4.30;;
77775;SDS011;66965;43.328;6.668;2023-03-01T03:50:49;6.30;;;4.15;;
77775;SDS011;66965;43.328;6.668;2023-03-01T03:53:16;6.40;;;3.45;;
77775;SDS011;66965;43.328;6.668;2023-03-01T03:55:43;7.50;;;4.03;;
77775;SDS011;66965;43.328;6.668;2023-03-01T03:58:09;8.75;;;4.78;;
77775;SDS011;66965;43.328;6.668;2023-03-01T04:00:39;8.93;;;4.43;;
77775;SDS011;66965;43.328;6.668;2023-03-01T04:03:07;6.53;;;3.78;;
77775;SDS011;66965;43.328;6.668;2023-03-01T04:05:33;7.10;;;3.53;;
77775;SDS011;66965;43.328;6.668;2023-03-01T04:08:00;7.00;;;4.05;;
77775;SDS011;66965;43.328;6.668;2023-03-01T04:10:42;6.80;;;3.40;;
77775;SDS011;66965;43.328;6.668;2023-03-01T04:13:11;8.00;;;3.40;;
77775;SDS011;66965;43.328;6.668;2023-03-01T04:15:39;7.03;;;3.30;;
77775;SDS011;66965;43.328;6.668;2023-03-01T04:18:05;6.55;;;2.80;;
77775;SDS011;66965;43.328;6.668;2023-03-01T04:23:00;9.23;;;4.38;;
77775;SDS011;66965;43.328;6.668;2023-03-01T04:28:20;8.63;;;3.40;;
77775;SDS011;66965;43.328;6.668;2023-03-01T04:30:50;9.57;;;3.58;;
77775;SDS011;66965;43.328;6.668;2023-03-01T04:35:41;9.18;;;3.40;;
77775;SDS011;66965;43.328;6.668;2023-03-01T04:38:07;13.02;;;4.03;;
77775;SDS011;66965;43.328;6.668;2023-03-01T04:40:33;15.23;;;4.10;;
77775;SDS011;66965;43.328;6.668;2023-03-01T04:42:59;7.53;;;2.78;;
77775;SDS011;66965;43.328;6.668;2023-03-01T04:45:25;9.32;;;3.97;;
77775;SDS011;66965;43.328;6.668;2023-03-01T04:47:51;7.40;;;3.53;;
77775;SDS011;66965;43.328;6.668;2023-03-01T04:50:17;8.57;;;4.45;;
77775;SDS011;66965;43.328;6.668;2023-03-01T04:52:48;11.77;;;4.45;;
77775;SDS011;66965;43.328;6.668;2023-03-01T04:55:14;7.07;;;4.40;;
77775;SDS011;66965;43.328;6.668;2023-03-01T04:57:40;8.93;;;4.57;;
77775;SDS011;66965;43.328;6.668;2023-03-01T05:00:06;8.05;;;4.20;;
77775;SDS011;66965;43.328;6.668;2023-03-01T05:02:52;13.90;;;4.93;;
77775;SDS011;66965;43.328;6.668;2023-03-01T05:07:53;7.55;;;4.00;;
77775;SDS011;66965;43.328;6.668;2023-03-01T05:10:19;11.77;;;3.67;;
77775;SDS011;66965;43.328;6.668;2023-03-01T05:12:45;8.77;;;4.43;;
77775;SDS011;66965;43.328;6.668;2023-03-01T05:15:11;11.65;;;4.22;;
77775;SDS011;66965;43.328;6.668;2023-03-01T05:17:37;9.80;;;4.93;;
77775;SDS011;66965;43.328;6.668;2023-03-01T05:20:02;11.38;;;4.53;;
77775;SDS011;66965;43.328;6.668;2023-03-01T05:22:33;10.15;;;4.97;;
77775;SDS011;66965;43.328;6.668;2023-03-01T05:24:58;9.45;;;4.60;;
77775;SDS011;66965;43.328;6.668;2023-03-01T05:27:24;12.48;;;4.60;;
77775;SDS011;66965;43.328;6.668;2023-03-01T05:29:49;11.23;;;5.05;;
77775;SDS011;66965;43.328;6.668;2023-03-01T05:32:14;11.98;;;5.55;;
77775;SDS011;66965;43.328;6.668;2023-03-01T05:34:40;15.18;;;5.70;;
77775;SDS011;66965;43.328;6.668;2023-03-01T05:37:06;13.45;;;5.70;;
77775;SDS011;66965;43.328;6.668;2023-03-01T05:39:33;20.52;;;6.25;;
77775;SDS011;66965;43.328;6.668;2023-03-01T05:42:00;22.85;;;9.40;;
77775;SDS011;66965;43.328;6.668;2023-03-01T05:44:26;17.45;;;6.53;;
77775;SDS011;66965;43.328;6.668;2023-03-01T05:46:53;12.88;;;6.07;;
77775;SDS011;66965;43.328;6.668;2023-03-01T05:49:19;21.50;;;7.00;;
77775;SDS011;66965;43.328;6.668;2023-03-01T05:51:48;23.75;;;8.35;;
77775;SDS011;66965;43.328;6.668;2023-03-01T05:54:15;17.17;;;7.95;;
77775;SDS011;66965;43.328;6.668;2023-03-01T05:56:41;18.55;;;8.20;;
77775;SDS011;66965;43.328;6.668;2023-03-01T05:59:07;18.27;;;8.15;;
77775;SDS011;66965;43.328;6.668;2023-03-01T06:01:33;18.15;;;7.15;;
77775;SDS011;66965;43.328;6.668;2023-03-01T06:03:59;11.82;;;6.22;;
77775;SDS011;66965;43.328;6.668;2023-03-01T06:06:24;14.35;;;7.00;;
77775;SDS011;66965;43.328;6.668;2023-03-01T06:08:51;14.52;;;7.10;;
77775;SDS011;66965;43.328;6.668;2023-03-01T06:11:16;12.40;;;6.25;;
77775;SDS011;66965;43.328;6.668;2023-03-01T06:13:42;12.10;;;6.07;;
77775;SDS011;66965;43.328;6.668;2023-03-01T06:16:09;14.85;;;7.45;;
77775;SDS011;66965;43.328;6.668;2023-03-01T06:18:35;12.93;;;6.22;;
77775;SDS011;66965;43.328;6.668;2023-03-01T06:21:02;9.90;;;6.20;;
77775;SDS011;66965;43.328;6.668;2023-03-01T06:23:28;13.05;;;5.68;;
77775;SDS011;66965;43.328;6.668;2023-03-01T06:25:53;10.85;;;5.63;;
77775;SDS011;66965;43.328;6.668;2023-03-01T06:28:19;12.48;;;5.57;;
77775;SDS011;66965;43.328;6.668;2023-03-01T06:30:44;10.18;;;4.88;;
77775;SDS011;66965;43.328;6.668;2023-03-01T06:33:10;12.55;;;5.07;;
77775;SDS011;66965;43.328;6.668;2023-03-01T06:35:36;11.65;;;6.10;;
77775;SDS011;66965;43.328;6.668;2023-03-01T06:38:02;8.60;;;4.85;;
77775;SDS011;66965;43.328;6.668;2023-03-01T06:40:29;10.88;;;5.72;;
77775;SDS011;66965;43.328;6.668;2023-03-01T06:42:56;9.73;;;5.28;;
77775;SDS011;66965;43.328;6.668;2023-03-01T06:45:22;8.00;;;5.30;;
77775;SDS011;66965;43.328;6.668;2023-03-01T06:47:47;9.23;;;5.97;;
77775;SDS011;66965;43.328;6.668;2023-03-01T06:50:13;15.00;;;5.93;;
77775;SDS011;66965;43.328;6.668;2023-03-01T06:55:05;11.77;;;5.60;;
77775;SDS011;66965;43.328;6.668;2023-03-01T06:57:31;11.63;;;5.90;;
77775;SDS011;66965;43.328;6.668;2023-03-01T06:59:56;13.63;;;7.18;;
77775;SDS011;66965;43.328;6.668;2023-03-01T07:02:22;11.23;;;6.03;;
77775;SDS011;66965;43.328;6.668;2023-03-01T07:04:51;13.15;;;6.30;;
77775;SDS011;66965;43.328;6.668;2023-03-01T07:07:17;15.90;;;6.85;;
77775;SDS011;66965;43.328;6.668;2023-03-01T07:09:43;17.33;;;6.15;;
77775;SDS011;66965;43.328;6.668;2023-03-01T07:12:10;12.13;;;5.57;;
77775;SDS011;66965;43.328;6.668;2023-03-01T07:14:35;19.05;;;6.13;;
77775;SDS011;66965;43.328;6.668;2023-03-01T07:17:01;14.73;;;6.85;;
77775;SDS011;66965;43.328;6.668;2023-03-01T07:19:27;9.48;;;4.90;;
77775;SDS011;66965;43.328;6.668;2023-03-01T07:21:52;20.15;;;5.68;;
77775;SDS011;66965;43.328;6.668;2023-03-01T07:24:18;25.40;;;8.25;;
77775;SDS011;66965;43.328;6.668;2023-03-01T07:26:47;16.90;;;6.15;;
77775;SDS011;66965;43.328;6.668;2023-03-01T07:29:13;12.52;;;5.63;;
77775;SDS011;66965;43.328;6.668;2023-03-01T07:31:39;21.02;;;6.78;;
77775;SDS011;66965;43.328;6.668;2023-03-01T07:34:04;17.40;;;6.43;;
77775;SDS011;66965;43.328;6.668;2023-03-01T07:36:29;11.90;;;5.47;;
77775;SDS011;66965;43.328;6.668;2023-03-01T07:38:55;18.40;;;6.38;;
77775;SDS011;66965;43.328;6.668;2023-03-01T07:41:20;30.13;;;6.28;;
77775;SDS011;66965;43.328;6.668;2023-03-01T07:43:46;27.58;;;7.55;;
77775;SDS011;66965;43.328;6.668;2023-03-01T07:46:12;24.45;;;7.05;;
77775;SDS011;66965;43.328;6.668;2023-03-01T07:48:37;31.77;;;6.53;;
77775;SDS011;66965;43.328;6.668;2023-03-01T07:51:04;28.30;;;8.10;;
77775;SDS011;66965;43.328;6.668;2023-03-01T07:53:30;19.40;;;6.68;;
77775;SDS011;66965;43.328;6.668;2023-03-01T07:56:09;28.27;;;6.97;;
77775;SDS011;66965;43.328;6.668;2023-03-01T07:58:37;31.63;;;6.35;;
77775;SDS011;66965;43.328;6.668;2023-03-01T08:01:06;34.88;;;7.93;;
77775;SDS011;66965;43.328;6.668;2023-03-01T08:03:33;36.47;;;9.43;;
77775;SDS011;66965;43.328;6.668;2023-03-01T08:06:00;31.80;;;8.23;;
77775;SDS011;66965;43.328;6.668;2023-03-01T08:08:26;37.47;;;8.48;;
77775;SDS011;66965;43.328;6.668;2023-03-01T08:10:52;20.85;;;7.20;;
77775;SDS011;66965;43.328;6.668;2023-03-01T08:13:17;37.97;;;8.70;;
77775;SDS011;66965;43.328;6.668;2023-03-01T08:15:47;22.10;;;5.82;;
77775;SDS011;66965;43.328;6.668;2023-03-01T08:18:13;14.40;;;4.75;;
77775;SDS011;66965;43.328;6.668;2023-03-01T08:20:39;22.92;;;5.50;;
77775;SDS011;66965;43.328;6.668;2023-03-01T08:23:04;13.38;;;5.20;;
77775;SDS011;66965;43.328;6.668;2023-03-01T08:25:30;17.40;;;5.10;;
77775;SDS011;66965;43.328;6.668;2023-03-01T08:27:55;26.23;;;6.30;;
77775;SDS011;66965;43.328;6.668;2023-03-01T08:30:21;26.60;;;6.90;;
77775;SDS011;66965;43.328;6.668;2023-03-01T08:32:48;25.75;;;5.75;;
77775;SDS011;66965;43.328;6.668;2023-03-01T08:35:14;19.30;;;5.53;;
77775;SDS011;66965;43.328;6.668;2023-03-01T08:37:40;14.98;;;5.55;;
77775;SDS011;66965;43.328;6.668;2023-03-01T08:40:06;16.33;;;6.57;;
77775;SDS011;66965;43.328;6.668;2023-03-01T08:42:34;16.30;;;5.57;;
77775;SDS011;66965;43.328;6.668;2023-03-01T08:45:01;15.57;;;5.53;;
77775;SDS011;66965;43.328;6.668;2023-03-01T08:47:27;12.63;;;4.60;;
77775;SDS011;66965;43.328;6.668;2023-03-01T08:49:53;25.02;;;7.15;;
77775;SDS011;66965;43.328;6.668;2023-03-01T08:52:19;20.23;;;6.05;;
77775;SDS011;66965;43.328;6.668;2023-03-01T08:54:45;11.95;;;4.20;;
77775;SDS011;66965;43.328;6.668;2023-03-01T08:57:12;34.58;;;8.07;;
77775;SDS011;66965;43.328;6.668;2023-03-01T08:59:38;22.83;;;6.22;;
77775;SDS011;66965;43.328;6.668;2023-03-01T09:02:04;37.05;;;9.10;;
77775;SDS011;66965;43.328;6.668;2023-03-01T09:04:30;31.98;;;8.07;;
77775;SDS011;66965;43.328;6.668;2023-03-01T09:06:55;27.05;;;7.80;;
77775;SDS011;66965;43.328;6.668;2023-03-01T09:09:21;28.80;;;8.80;;
77775;SDS011;66965;43.328;6.668;2023-03-01T09:11:46;13.90;;;5.32;;
77775;SDS011;66965;43.328;6.668;2023-03-01T09:14:12;9.63;;;4.03;;
77775;SDS011;66965;43.328;6.668;2023-03-01T09:16:38;9.55;;;3.78;;
77775;SDS011;66965;43.328;6.668;2023-03-01T09:19:04;7.18;;;3.20;;
77775;SDS011;66965;43.328;6.668;2023-03-01T09:21:30;5.78;;;3.03;;
77775;SDS011;66965;43.328;6.668;2023-03-01T09:23:56;7.07;;;3.08;;
77775;SDS011;66965;43.328;6.668;2023-03-01T09:28:49;5.70;;;2.97;;
77775;SDS011;66965;43.328;6.668;2023-03-01T09:31:16;13.93;;;4.18;;
77775;SDS011;66965;43.328;6.668;2023-03-01T09:33:45;8.95;;;3.70;;
77775;SDS011;66965;43.328;6.668;2023-03-01T09:36:13;8.57;;;3.40;;
77775;SDS011;66965;43.328;6.668;2023-03-01T09:38:40;7.32;;;3.72;;
77775;SDS011;66965;43.328;6.668;2023-03-01T09:47:19;6.97;;;3.63;;
77775;SDS011;66965;43.328;6.668;2023-03-01T09:54:54;20.43;;;7.67;;
77775;SDS011;66965;43.328;6.668;2023-03-01T09:57:26;14.52;;;6.10;;
77775;SDS011;66965;43.328;6.668;2023-03-01T09:59:56;15.20;;;6.78;;
77775;SDS011;66965;43.328;6.668;2023-03-01T10:02:44;13.77;;;6.18;;
77775;SDS011;66965;43.328;6.668;2023-03-01T10:05:25;15.43;;;6.35;;
77775;SDS011;66965;43.328;6.668;2023-03-01T10:08:02;15.45;;;6.90;;
77775;SDS011;66965;43.328;6.668;2023-03-01T10:10:44;15.48;;;7.43;;
77775;SDS011;66965;43.328;6.668;2023-03-01T10:13:24;16.13;;;7.10;;
77775;SDS011;66965;43.328;6.668;2023-03-01T10:15:51;8.75;;;3.88;;
77775;SDS011;66965;43.328;6.668;2023-03-01T10:18:27;5.82;;;3.50;;
77775;SDS011;66965;43.328;6.668;2023-03-01T10:21:01;7.68;;;3.20;;
77775;SDS011;66965;43.328;6.668;2023-03-01T10:23:39;7.00;;;3.10;;
77775;SDS011;66965;43.328;6.668;2023-03-01T10:31:11;21.70;;;7.25;;
77775;SDS011;66965;43.328;6.668;2023-03-01T10:33:38;29.90;;;8.27;;
77775;SDS011;66965;43.328;6.668;2023-03-01T10:36:04;56.85;;;10.93;;
77775;SDS011;66965;43.328;6.668;2023-03-01T10:38:31;62.20;;;12.07;;
77775;SDS011;66965;43.328;6.668;2023-03-01T10:41:23;56.78;;;13.55;;
77775;SDS011;66965;43.328;6.668;2023-03-01T10:43:51;45.58;;;12.10;;
77775;SDS011;66965;43.328;6.668;2023-03-01T10:49:16;60.58;;;14.45;;
77775;SDS011;66965;43.328;6.668;2023-03-01T10:51:51;40.33;;;17.73;;
77775;SDS011;66965;43.328;6.668;2023-03-01T10:54:33;38.50;;;9.93;;
77775;SDS011;66965;43.328;6.668;2023-03-01T10:57:00;50.10;;;12.60;;
77775;SDS011;66965;43.328;6.668;2023-03-01T10:59:34;58.35;;;13.00;;
77775;SDS011;66965;43.328;6.668;2023-03-01T11:02:02;63.30;;;15.10;;
77775;SDS011;66965;43.328;6.668;2023-03-01T11:04:39;71.35;;;15.90;;
77775;SDS011;66965;43.328;6.668;2023-03-01T11:07:07;74.25;;;15.63;;
77775;SDS011;66965;43.328;6.668;2023-03-01T11:09:33;61.25;;;13.82;;
77775;SDS011;66965;43.328;6.668;2023-03-01T11:14:38;60.85;;;16.13;;
77775;SDS011;66965;43.328;6.668;2023-03-01T11:17:15;64.75;;;16.27;;
77775;SDS011;66965;43.328;6.668;2023-03-01T11:19:59;70.40;;;16.63;;
77775;SDS011;66965;43.328;6.668;2023-03-01T11:25:44;91.18;;;18.83;;
77775;SDS011;66965;43.328;6.668;2023-03-01T11:28:15;69.00;;;16.25;;
77775;SDS011;66965;43.328;6.668;2023-03-01T11:30:53;56.33;;;13.05;;
77775;SDS011;66965;43.328;6.668;2023-03-01T11:38:55;81.40;;;17.10;;
77775;SDS011;66965;43.328;6.668;2023-03-01T11:41:28;60.47;;;16.40;;
77775;SDS011;66965;43.328;6.668;2023-03-01T11:46:58;69.72;;;15.70;;
77775;SDS011;66965;43.328;6.668;2023-03-01T12:00:49;64.60;;;13.60;;
77775;SDS011;66965;43.328;6.668;2023-03-01T12:09:27;43.90;;;12.90;;
77775;SDS011;66965;43.328;6.668;2023-03-01T12:20:37;59.92;;;14.85;;
77775;SDS011;66965;43.328;6.668;2023-03-01T12:23:20;72.72;;;14.02;;
77775;SDS011;66965;43.328;6.668;2023-03-01T12:32:27;35.10;;;8.57;;
77775;SDS011;66965;43.328;6.668;2023-03-01T12:48:24;44.25;;;8.75;;
77775;SDS011;66965;43.328;6.668;2023-03-01T12:51:02;79.78;;;16.90;;
77775;SDS011;66965;43.328;6.668;2023-03-01T12:53:36;60.08;;;11.15;;
77775;SDS011;66965;43.328;6.668;2023-03-01T12:56:11;53.72;;;12.55;;
77775;SDS011;66965;43.328;6.668;2023-03-01T13:06:44;49.78;;;11.00;;
77775;SDS011;66965;43.328;6.668;2023-03-01T13:12:03;28.77;;;7.75;;
77775;SDS011;66965;43.328;6.668;2023-03-01T13:16:57;61.50;;;12.85;;
77775;SDS011;66965;43.328;6.668;2023-03-01T13:19:26;46.20;;;9.38;;
77775;SDS011;66965;43.328;6.668;2023-03-01T13:21:54;60.75;;;12.75;;
77775;SDS011;66965;43.328;6.668;2023-03-01T13:34:47;69.30;;;11.82;;
77775;SDS011;66965;43.328;6.668;2023-03-01T13:37:19;71.63;;;13.48;;
77775;SDS011;66965;43.328;6.668;2023-03-01T13:39:57;68.50;;;13.57;;
77775;SDS011;66965;43.328;6.668;2023-03-01T13:42:39;44.88;;;10.15;;
77775;SDS011;66965;43.328;6.668;2023-03-01T13:45:18;47.72;;;11.20;;
77775;SDS011;66965;43.328;6.668;2023-03-01T13:47:52;41.67;;;9.15;;
77775;SDS011;66965;43.328;6.668;2023-03-01T13:50:23;44.03;;;9.63;;
77775;SDS011;66965;43.328;6.668;2023-03-01T13:53:00;47.72;;;9.10;;
77775;SDS011;66965;43.328;6.668;2023-03-01T13:55:36;57.88;;;11.75;;
77775;SDS011;66965;43.328;6.668;2023-03-01T13:58:16;53.13;;;10.73;;
77775;SDS011;66965;43.328;6.668;2023-03-01T14:00:58;53.63;;;12.57;;
77775;SDS011;66965;43.328;6.668;2023-03-01T14:03:24;39.58;;;8.35;;
77775;SDS011;66965;43.328;6.668;2023-03-01T14:08:25;41.63;;;7.85;;
77775;SDS011;66965;43.328;6.668;2023-03-01T14:19:19;50.42;;;11.85;;
77775;SDS011;66965;43.328;6.668;2023-03-01T14:24:27;45.05;;;9.43;;
77775;SDS011;66965;43.328;6.668;2023-03-01T14:26:57;27.00;;;6.40;;
77775;SDS011;66965;43.328;6.668;2023-03-01T14:29:27;58.40;;;11.18;;
77775;SDS011;66965;43.328;6.668;2023-03-01T14:32:18;33.35;;;7.78;;
77775;SDS011;66965;43.328;6.668;2023-03-01T14:34:46;42.55;;;9.27;;
77775;SDS011;66965;43.328;6.668;2023-03-01T14:39:54;57.88;;;11.38;;
77775;SDS011;66965;43.328;6.668;2023-03-01T14:42:21;22.75;;;5.13;;
77775;SDS011;66965;43.328;6.668;2023-03-01T14:44:51;45.92;;;12.18;;
77775;SDS011;66965;43.328;6.668;2023-03-01T14:47:31;69.25;;;14.23;;
77775;SDS011;66965;43.328;6.668;2023-03-01T14:53:00;18.98;;;6.25;;
77775;SDS011;66965;43.328;6.668;2023-03-01T14:55:33;34.22;;;8.82;;
77775;SDS011;66965;43.328;6.668;2023-03-01T14:58:05;27.85;;;6.45;;
77775;SDS011;66965;43.328;6.668;2023-03-01T15:00:34;31.85;;;7.55;;
77775;SDS011;66965;43.328;6.668;2023-03-01T15:03:05;32.03;;;7.75;;
77775;SDS011;66965;43.328;6.668;2023-03-01T15:05:51;38.08;;;8.15;;
77775;SDS011;66965;43.328;6.668;2023-03-01T15:08:19;68.85;;;16.10;;
77775;SDS011;66965;43.328;6.668;2023-03-01T15:11:17;41.72;;;8.60;;
77775;SDS011;66965;43.328;6.668;2023-03-01T15:13:38;61.58;;;12.90;;
77775;SDS011;66965;43.328;6.668;2023-03-01T15:16:06;64.93;;;12.73;;
77775;SDS011;66965;43.328;6.668;2023-03-01T15:18:37;70.53;;;15.65;;
77775;SDS011;66965;43.328;6.668;2023-03-01T15:21:13;54.20;;;12.15;;
77775;SDS011;66965;43.328;6.668;2023-03-01T15:23:40;40.97;;;10.13;;
77775;SDS011;66965;43.328;6.668;2023-03-01T15:26:05;20.80;;;7.45;;
77775;SDS011;66965;43.328;6.668;2023-03-01T15:28:34;26.90;;;7.68;;
77775;SDS011;66965;43.328;6.668;2023-03-01T15:31:12;28.15;;;6.20;;
77775;SDS011;66965;43.328;6.668;2023-03-01T15:33:42;56.55;;;11.82;;
77775;SDS011;66965;43.328;6.668;2023-03-01T15:38:57;30.90;;;7.65;;
77775;SDS011;66965;43.328;6.668;2023-03-01T15:41:29;54.80;;;11.73;;
77775;SDS011;66965;43.328;6.668;2023-03-01T15:43:57;21.15;;;5.95;;
77775;SDS011;66965;43.328;6.668;2023-03-01T15:46:25;21.73;;;4.93;;
77775;SDS011;66965;43.328;6.668;2023-03-01T15:48:55;33.72;;;7.97;;
77775;SDS011;66965;43.328;6.668;2023-03-01T15:51:35;45.42;;;10.00;;
77775;SDS011;66965;43.328;6.668;2023-03-01T15:54:18;49.78;;;9.75;;
77775;SDS011;66965;43.328;6.668;2023-03-01T15:59:12;38.85;;;8.52;;
77775;SDS011;66965;43.328;6.668;2023-03-01T16:01:40;60.70;;;13.60;;
77775;SDS011;66965;43.328;6.668;2023-03-01T16:04:07;36.60;;;7.97;;
77775;SDS011;66965;43.328;6.668;2023-03-01T16:06:35;53.88;;;12.15;;
77775;SDS011;66965;43.328;6.668;2023-03-01T16:09:00;60.25;;;10.82;;
77775;SDS011;66965;43.328;6.668;2023-03-01T16:13:53;44.20;;;11.52;;
77775;SDS011;66965;43.328;6.668;2023-03-01T16:16:18;56.03;;;10.23;;
77775;SDS011;66965;43.328;6.668;2023-03-01T16:18:44;55.65;;;12.25;;
77775;SDS011;66965;43.328;6.668;2023-03-01T16:21:12;58.30;;;13.73;;
77775;SDS011;66965;43.328;6.668;2023-03-01T16:23:40;59.97;;;11.90;;
77775;SDS011;66965;43.328;6.668;2023-03-01T16:26:06;71.40;;;13.38;;
77775;SDS011;66965;43.328;6.668;2023-03-01T16:28:32;30.10;;;7.00;;
77775;SDS011;66965;43.328;6.668;2023-03-01T16:30:57;54.00;;;12.95;;
77775;SDS011;66965;43.328;6.668;2023-03-01T16:33:23;49.67;;;10.57;;
77775;SDS011;66965;43.328;6.668;2023-03-01T16:35:48;50.20;;;8.15;;
77775;SDS011;66965;43.328;6.668;2023-03-01T16:38:14;71.55;;;11.63;;
77775;SDS011;66965;43.328;6.668;2023-03-01T16:40:39;37.50;;;8.30;;
77775;SDS011;66965;43.328;6.668;2023-03-01T16:43:12;43.10;;;8.57;;
77775;SDS011;66965;43.328;6.668;2023-03-01T16:45:38;59.65;;;11.13;;
77775;SDS011;66965;43.328;6.668;2023-03-01T16:48:05;72.65;;;11.50;;
77775;SDS011;66965;43.328;6.668;2023-03-01T16:50:31;70.38;;;13.95;;
77775;SDS011;66965;43.328;6.668;2023-03-01T16:52:57;39.47;;;6.97;;
77775;SDS011;66965;43.328;6.668;2023-03-01T16:55:22;65.80;;;12.73;;
77775;SDS011;66965;43.328;6.668;2023-03-01T16:57:48;53.70;;;10.85;;
77775;SDS011;66965;43.328;6.668;2023-03-01T17:00:14;36.67;;;8.20;;
77775;SDS011;66965;43.328;6.668;2023-03-01T17:02:40;35.45;;;7.70;;
77775;SDS011;66965;43.328;6.668;2023-03-01T17:05:07;30.13;;;5.70;;
77775;SDS011;66965;43.328;6.668;2023-03-01T17:07:33;41.58;;;8.68;;
77775;SDS011;66965;43.328;6.668;2023-03-01T17:10:00;39.03;;;8.27;;
77775;SDS011;66965;43.328;6.668;2023-03-01T17:12:26;56.90;;;9.40;;
77775;SDS011;66965;43.328;6.668;2023-03-01T17:14:52;60.35;;;10.85;;
77775;SDS011;66965;43.328;6.668;2023-03-01T17:17:17;42.55;;;8.07;;
77775;SDS011;66965;43.328;6.668;2023-03-01T17:19:43;26.15;;;6.15;;
77775;SDS011;66965;43.328;6.668;2023-03-01T17:22:09;50.20;;;10.75;;
77775;SDS011;66965;43.328;6.668;2023-03-01T17:24:37;31.13;;;7.32;;
77775;SDS011;66965;43.328;6.668;2023-03-01T17:27:03;17.25;;;3.58;;